Time;durP1;ratioP1;P1;durP2;ratioP2;P2;SDS_P1;SDS_P2;PMS_P1;PMS_P2;Temp;Humidity;BMP_temperature;BMP_pressure;BME280_temperature;BME280_humidity;BME280_pressure;Samples;Min_cycle;Max_cycle;Signal;HPM_P1;HPM_P2
2021/05/16 00:01:18;;;;;;;5.63;3.68;;;;;;;10.64;84.12;95757.86;128017;1101;22771;-83
2021/05/16 00:03:48;;;;;;;5.23;3.23;;;;;;;10.66;84.43;95758.34;128074;1101;22926;-84
2021/05/16 00:06:18;;;;;;;4.88;2.78;;;;;;;10.59;84.44;95754.55;128064;1101;22822;-86
2021/05/16 00:08:48;;;;;;;9.50;5.10;;;;;;;10.56;84.44;95755.16;128055;1101;22774;-84
2021/05/16 00:11:18;;;;;;;6.68;4.38;;;;;;;10.52;85.29;95757.59;128039;1101;22766;-83
2021/05/16 00:13:48;;;;;;;6.50;4.40;;;;;;;10.45;85.08;95745.85;128099;1101;22750;-85
2021/05/16 00:16:18;;;;;;;8.08;5.08;;;;;;;10.47;84.77;95756.94;128137;1094;26034;-83
2021/05/16 00:18:48;;;;;;;8.55;4.68;;;;;;;10.48;84.88;95748.69;128061;1101;22774;-85
2021/05/16 00:21:17;;;;;;;6.35;4.40;;;;;;;10.50;85.27;95759.77;128049;1101;24099;-85
2021/05/16 00:23:48;;;;;;;7.37;4.93;;;;;;;10.47;85.23;95751.63;128048;1101;22825;-84
2021/05/16 00:26:18;;;;;;;6.73;5.28;;;;;;;10.44;85.93;95746.94;128038;1101;23314;-85
2021/05/16 00:28:47;;;;;;;9.13;5.03;;;;;;;10.38;85.66;95740.94;128049;1096;22778;-84
2021/05/16 00:31:18;;;;;;;5.50;3.97;;;;;;;10.34;86.30;95748.70;128079;1101;22757;-84
2021/05/16 00:33:48;;;;;;;5.35;3.73;;;;;;;10.32;86.46;95745.58;128065;1101;22757;-83
2021/05/16 00:36:18;;;;;;;6.60;4.43;;;;;;;10.32;86.14;95739.50;128065;1101;22781;-86
2021/05/16 00:38:56;;;;;;;6.88;4.45;;;;;;;10.31;86.16;95737.93;128071;1101;22781;-85
2021/05/16 00:41:27;;;;;;;4.70;3.30;;;;;;;10.31;86.00;95727.33;128155;1101;22778;-83
2021/05/16 00:43:56;;;;;;;3.20;2.68;;;;;;;10.36;85.83;95730.64;128152;1101;22761;-85
2021/05/16 00:46:26;;;;;;;4.88;2.73;;;;;;;10.32;86.03;95731.55;128163;1101;22753;-83
2021/05/16 00:48:56;;;;;;;4.35;2.80;;;;;;;10.29;85.95;95734.80;128146;1101;22770;-85
2021/05/16 00:51:26;;;;;;;5.45;3.55;;;;;;;10.30;85.96;95731.06;128085;1101;22765;-84
2021/05/16 00:53:58;;;;;;;4.68;2.93;;;;;;;10.34;85.99;95730.16;128076;1101;22899;-83
2021/05/16 00:56:28;;;;;;;5.43;3.45;;;;;;;10.37;86.00;95720.83;128096;1101;22776;-85
2021/05/16 00:58:59;;;;;;;5.43;3.83;;;;;;;10.38;85.82;95722.39;128065;1101;22749;-85
2021/05/16 01:01:29;;;;;;;5.68;3.40;;;;;;;10.42;85.89;95712.01;128060;1101;22919;-84
2021/05/16 01:03:59;;;;;;;6.20;3.68;;;;;;;10.46;85.71;95713.75;128061;1101;22751;-85
2021/05/16 01:06:29;;;;;;;4.78;3.50;;;;;;;10.40;86.22;95704.33;128075;1096;22773;-84
2021/05/16 01:09:00;;;;;;;5.00;3.50;;;;;;;10.40;85.71;95702.47;128109;1095;25945;-83
2021/05/16 01:11:32;;;;;;;4.48;3.00;;;;;;;10.43;85.89;95706.41;128025;1101;22763;-83
2021/05/16 01:14:05;;;;;;;5.45;3.58;;;;;;;10.39;85.74;95702.77;128066;1096;22795;-88
2021/05/16 01:16:35;;;;;;;4.93;2.75;;;;;;;10.42;85.66;95706.71;128065;1101;22760;-84
2021/05/16 01:19:05;;;;;;;3.65;2.83;;;;;;;10.42;85.22;95702.20;128089;1101;22770;-84
2021/05/16 01:21:35;;;;;;;5.93;3.20;;;;;;;10.44;85.51;95704.54;128098;1101;22777;-82
2021/05/16 01:24:16;;;;;;;4.00;2.53;;;;;;;10.42;85.35;95706.71;128110;1101;22738;-83
2021/05/16 01:26:47;;;;;;;6.65;2.68;;;;;;;10.41;85.44;95705.89;128040;1101;23080;-83
2021/05/16 01:29:18;;;;;;;3.80;2.48;;;;;;;10.40;85.02;95704.33;128065;1096;26411;-83
2021/05/16 01:31:49;;;;;;;5.05;2.75;;;;;;;10.37;85.25;95704.94;128063;1096;22833;-85
2021/05/16 01:34:21;;;;;;;2.75;2.20;;;;;;;10.35;84.92;95701.80;128099;1094;25861;-84
2021/05/16 01:36:51;;;;;;;5.00;2.30;;;;;;;10.35;84.53;95707.89;128049;1101;22750;-86
2021/05/16 01:39:21;;;;;;;3.35;2.20;;;;;;;10.39;84.60;95702.77;128066;1101;22753;-84
2021/05/16 01:41:51;;;;;;;2.95;2.25;;;;;;;10.38;84.69;95701.98;128074;1093;26718;-83
2021/05/16 01:44:23;;;;;;;4.33;2.58;;;;;;;10.39;84.70;95705.41;128145;1101;22789;-87
2021/05/16 01:46:54;;;;;;;3.30;2.35;;;;;;;10.31;84.47;95700.84;128035;1101;22753;-84
2021/05/16 01:49:24;;;;;;;4.00;2.18;;;;;;;10.27;84.80;95700.63;128074;1101;22754;-84
2021/05/16 01:51:54;;;;;;;4.60;2.70;;;;;;;10.22;84.86;95705.27;128062;1101;22780;-84
2021/05/16 01:54:24;;;;;;;4.23;2.73;;;;;;;10.21;84.80;95698.38;128027;1101;22762;-84
2021/05/16 01:56:55;;;;;;;3.60;2.55;;;;;;;10.22;84.43;95692.02;128058;1101;22750;-83
2021/05/16 01:59:25;;;;;;;2.50;2.18;;;;;;;10.14;84.46;95695.36;128087;1101;22757;-83
2021/05/16 02:01:59;;;;;;;3.35;2.18;;;;;;;10.15;84.74;95694.28;128058;1101;22811;-84
2021/05/16 02:04:31;;;;;;;4.53;2.60;;;;;;;10.15;84.42;95691.63;128052;1101;22738;-83
2021/05/16 02:07:02;;;;;;;3.65;2.60;;;;;;;10.16;84.73;95701.14;128050;1096;26323;-85
2021/05/16 02:09:30;;;;;;;;;;;;;;;10.18;85.08;95702.41;128076;1101;22815;-82
2021/05/16 02:12:00;;;;;;;4.95;2.90;;;;;;;10.21;84.90;95701.02;128073;1101;21465;-84
2021/05/16 02:14:32;;;;;;;3.38;2.70;;;;;;;10.20;84.53;95704.75;128120;1101;22754;-83
2021/05/16 02:17:05;;;;;;;3.13;2.30;;;;;;;10.20;84.51;95696.81;128050;1101;22751;-84
2021/05/16 02:19:35;;;;;;;3.90;2.40;;;;;;;10.17;84.38;95700.06;128057;1101;22750;-82
2021/05/16 02:22:05;;;;;;;3.20;2.43;;;;;;;10.17;84.30;95689.46;128057;1101;22738;-84
2021/05/16 02:24:35;;;;;;;3.30;2.20;;;;;;;10.19;84.36;95695.24;128081;1101;22753;-83
2021/05/16 02:27:05;;;;;;;3.63;2.10;;;;;;;10.16;84.67;95683.38;128089;1101;22757;-84
2021/05/16 02:29:36;;;;;;;2.65;2.30;;;;;;;10.11;84.74;95684.25;128070;1094;27061;-83
2021/05/16 02:32:08;;;;;;;3.25;1.90;;;;;;;10.05;84.68;95684.67;128063;1101;22750;-86
2021/05/16 02:34:38;;;;;;;2.88;1.65;;;;;;;10.02;84.71;95675.47;128061;1101;22840;-83
2021/05/16 02:37:07;;;;;;;2.88;2.18;;;;;;;10.00;84.66;95672.33;128079;1101;22766;-84
2021/05/16 02:39:37;;;;;;;2.80;1.80;;;;;;;9.99;84.57;95676.06;128050;1101;22767;-83
2021/05/16 02:42:08;;;;;;;2.95;2.08;;;;;;;9.97;84.35;95680.84;128104;1096;23710;-83
2021/05/16 02:44:38;;;;;;;4.13;2.48;;;;;;;9.93;85.37;95685.17;128082;1101;22753;-83
2021/05/16 02:47:08;;;;;;;5.25;3.05;;;;;;;9.76;86.32;95685.78;128079;1101;22746;-86
2021/05/16 02:49:37;;;;;;;3.33;2.15;;;;;;;9.62;86.91;95689.52;128060;1101;24362;-82
2021/05/16 02:52:07;;;;;;;5.23;3.50;;;;;;;9.52;86.64;95679.89;128055;1101;22745;-83
2021/05/16 02:54:37;;;;;;;5.15;3.45;;;;;;;9.48;87.23;95681.56;128076;1094;22771;-81
2021/05/16 02:57:07;;;;;;;5.55;3.18;;;;;;;9.50;87.18;95689.98;128080;1101;23214;-84
2021/05/16 02:59:37;;;;;;;4.00;2.88;;;;;;;9.58;87.48;95694.61;128135;1101;22754;-82
2021/05/16 03:02:07;;;;;;;5.08;3.20;;;;;;;9.65;88.26;95691.56;128091;1101;22753;-85
2021/05/16 03:04:37;;;;;;;3.85;2.63;;;;;;;9.68;88.31;95690.97;128091;1094;26241;-83
2021/05/16 03:07:07;;;;;;;3.43;2.60;;;;;;;9.69;88.01;95700.47;128140;1096;22768;-84
2021/05/16 03:09:36;;;;;;;3.48;2.90;;;;;;;9.71;87.55;95691.19;128121;1101;23703;-82
2021/05/16 03:12:08;;;;;;;3.25;2.55;;;;;;;9.72;87.54;95692.75;128024;1101;22782;-83
2021/05/16 03:14:38;;;;;;;4.00;2.30;;;;;;;9.74;87.05;95687.94;128046;1101;22745;-83
2021/05/16 03:17:08;;;;;;;3.30;2.55;;;;;;;9.77;87.19;95687.34;128089;1101;22816;-85
2021/05/16 03:19:38;;;;;;;3.18;2.30;;;;;;;9.79;87.50;95689.70;128083;1101;22771;-83
2021/05/16 03:22:09;;;;;;;4.30;2.90;;;;;;;9.78;88.07;95696.07;128066;1101;22749;-83
2021/05/16 03:24:39;;;;;;;4.38;2.80;;;;;;;9.76;87.82;95690.30;128116;1101;22781;-84
2021/05/16 03:27:09;;;;;;;5.88;2.73;;;;;;;9.76;87.98;95695.59;128064;1101;22771;-85
2021/05/16 03:29:40;;;;;;;3.87;2.80;;;;;;;9.78;87.49;95701.36;128136;1101;22772;-83
2021/05/16 03:32:10;;;;;;;3.93;2.80;;;;;;;9.80;87.27;95701.84;128082;1101;22774;-84
2021/05/16 03:34:40;;;;;;;3.85;2.70;;;;;;;9.83;87.45;95696.74;128074;1101;22922;-82
2021/05/16 03:37:10;;;;;;;4.33;2.80;;;;;;;9.89;87.01;95700.09;128090;1101;22753;-84
2021/05/16 03:39:39;;;;;;;4.17;2.50;;;;;;;9.90;87.11;95696.36;128086;1101;22839;-82
2021/05/16 03:42:09;;;;;;;3.55;2.78;;;;;;;9.91;87.49;95697.92;128164;1096;23177;-82
2021/05/16 03:44:39;;;;;;;3.83;2.58;;;;;;;9.96;86.74;95699.68;128160;1101;22754;-83
2021/05/16 03:47:09;;;;;;;2.18;1.83;;;;;;;10.04;86.54;95701.64;128073;1101;22746;-86
2021/05/16 03:49:39;;;;;;;3.00;2.13;;;;;;;10.14;86.38;95690.06;128069;1094;25845;-83
2021/05/16 03:52:09;;;;;;;2.53;1.80;;;;;;;10.17;86.05;95689.46;128072;1101;24710;-85
2021/05/16 03:54:40;;;;;;;3.45;2.10;;;;;;;10.23;86.20;95683.77;128078;1101;22753;-83
2021/05/16 03:57:10;;;;;;;2.95;1.55;;;;;;;10.27;86.03;95687.39;128055;1101;22934;-85
2021/05/16 03:59:40;;;;;;;1.95;1.40;;;;;;;10.34;86.03;95687.77;128075;1101;22775;-82
2021/05/16 04:02:10;;;;;;;2.00;1.55;;;;;;;10.44;85.62;95688.64;128068;1101;22753;-82
2021/05/16 04:04:40;;;;;;;3.23;1.68;;;;;;;10.53;85.36;95681.53;128085;1101;22763;-82
2021/05/16 04:07:13;;;;;;;3.15;1.75;;;;;;;10.64;85.10;95678.34;128035;1101;22782;-85
2021/05/16 04:09:43;;;;;;;2.93;1.68;;;;;;;10.65;84.86;95674.61;128064;1101;22774;-83
2021/05/16 04:12:13;;;;;;;2.50;1.63;;;;;;;10.66;84.54;95672.74;128098;1101;22812;-86
2021/05/16 04:14:50;;;;;;;2.33;1.80;;;;;;;10.64;84.77;95675.70;128087;1101;23676;-86
2021/05/16 04:17:23;;;;;;;2.78;1.68;;;;;;;10.61;84.65;95673.66;128044;1101;22774;-86
2021/05/16 04:19:52;;;;;;;3.03;1.73;;;;;;;10.58;84.97;95668.18;128066;1101;22760;-85
2021/05/16 04:22:22;;;;;;;2.33;1.63;;;;;;;10.59;85.11;95672.39;128087;1101;22761;-86
2021/05/16 04:24:54;;;;;;;2.55;1.63;;;;;;;10.61;85.08;95673.66;128089;1101;22754;-86
2021/05/16 04:27:24;;;;;;;4.05;1.88;;;;;;;10.62;85.03;95682.39;128046;1101;22742;-83
2021/05/16 04:29:54;;;;;;;3.73;1.98;;;;;;;10.67;85.07;95677.73;128097;1101;22756;-84
2021/05/16 04:32:24;;;;;;;2.60;2.10;;;;;;;10.74;84.90;95673.90;128051;1101;22757;-86
2021/05/16 04:34:53;;;;;;;2.50;1.95;;;;;;;10.81;84.71;95663.64;128078;1094;26385;-83
2021/05/16 04:37:24;;;;;;;3.60;2.48;;;;;;;10.84;84.48;95668.33;128086;1095;25861;-86
2021/05/16 04:39:54;;;;;;;3.53;2.25;;;;;;;10.87;84.28;95665.88;128067;1101;22744;-85
2021/05/16 04:42:24;;;;;;;2.38;1.85;;;;;;;10.98;84.24;95666.42;128069;1101;22774;-82
2021/05/16 04:44:54;;;;;;;2.95;1.90;;;;;;;11.03;84.11;95666.28;128142;1101;22744;-88
2021/05/16 04:47:23;;;;;;;2.30;1.83;;;;;;;11.09;84.09;95673.02;128108;1101;22916;-86
2021/05/16 04:49:54;;;;;;;3.00;1.90;;;;;;;11.15;83.77;95671.81;128091;1101;22792;-86
2021/05/16 04:52:23;;;;;;;3.68;2.00;;;;;;;11.23;83.48;95663.10;128063;1101;22750;-83
2021/05/16 04:54:54;;;;;;;2.83;1.48;;;;;;;11.30;82.94;95674.08;128074;1094;22753;-86
2021/05/16 04:57:23;;;;;;;2.73;1.70;;;;;;;11.39;83.00;95671.45;128088;1095;25867;-86
2021/05/16 04:59:53;;;;;;;4.08;1.85;;;;;;;11.44;82.82;95675.86;128033;1101;22771;-86
2021/05/16 05:02:23;;;;;;;2.75;1.95;;;;;;;11.52;82.50;95675.09;128046;1101;22841;-86
2021/05/16 05:04:54;;;;;;;2.93;1.80;;;;;;;11.67;82.54;95672.02;128089;1101;22879;-84
2021/05/16 05:07:24;;;;;;;2.30;1.48;;;;;;;11.77;81.93;95674.41;128081;1094;22815;-85
2021/05/16 05:09:54;;;;;;;2.80;1.90;;;;;;;11.83;81.50;95675.88;128090;1095;26220;-86
2021/05/16 05:12:24;;;;;;;2.60;1.90;;;;;;;11.93;81.41;95674.78;128066;1101;22753;-83
2021/05/16 05:14:54;;;;;;;3.50;1.90;;;;;;;12.07;81.64;95674.66;128080;1101;22830;-84
2021/05/16 05:17:24;;;;;;;1.95;1.45;;;;;;;12.24;81.21;95668.58;128056;1101;22768;-83
2021/05/16 05:19:54;;;;;;;4.63;2.05;;;;;;;12.43;81.38;95661.89;128081;1101;22830;-83
2021/05/16 05:22:24;;;;;;;2.95;1.98;;;;;;;12.53;80.79;95666.12;128059;1094;22771;-85
2021/05/16 05:24:54;;;;;;;2.68;2.05;;;;;;;12.57;80.52;95672.36;128083;1095;22777;-84
2021/05/16 05:27:25;;;;;;;1.45;1.30;;;;;;;12.63;80.12;95665.00;128112;1101;22783;-84
2021/05/16 05:29:54;;;;;;;;;;;;;;;12.66;79.54;95664.36;128117;1101;22773;-88
2021/05/16 05:32:23;;;;;;;3.23;1.83;;;;;;;12.61;79.27;95656.56;128047;1101;21680;-86
2021/05/16 05:34:53;;;;;;;2.90;1.70;;;;;;;12.64;79.48;95656.70;128041;1101;22938;-84
2021/05/16 05:37:24;;;;;;;3.05;2.00;;;;;;;12.73;79.17;95659.37;128079;1101;22870;-83
2021/05/16 05:39:54;;;;;;;3.33;1.90;;;;;;;12.92;79.28;95659.02;128064;1101;22929;-86
2021/05/16 05:42:26;;;;;;;3.37;1.63;;;;;;;13.09;78.74;95659.01;128116;1101;22794;-84
2021/05/16 05:44:55;;;;;;;3.48;1.90;;;;;;;13.20;78.96;95659.45;128127;1094;26752;-87
2021/05/16 05:47:25;;;;;;;4.98;1.90;;;;;;;13.23;78.26;95656.16;128054;1101;22799;-86
2021/05/16 05:49:55;;;;;;;2.50;1.83;;;;;;;13.13;78.23;95667.13;128082;1096;22783;-84
2021/05/16 05:52:26;;;;;;;2.85;1.85;;;;;;;13.10;78.04;95667.77;128056;1101;23086;-87
2021/05/16 05:54:55;;;;;;;;;;;;;;;13.11;78.35;95670.11;128080;1101;23072;-85
2021/05/16 05:57:25;;;;;;;2.15;1.88;;;;;;;13.26;78.99;95671.52;128062;1101;21465;-87
2021/05/16 05:59:55;;;;;;;2.30;1.68;;;;;;;13.33;78.92;95666.47;128072;1101;22738;-88
2021/05/16 06:02:25;;;;;;;3.65;1.60;;;;;;;13.49;78.62;95664.05;128051;1101;22746;-85
2021/05/16 06:04:55;;;;;;;1.95;1.30;;;;;;;13.89;78.58;95667.17;128107;1101;22829;-86
2021/05/16 06:07:25;;;;;;;2.10;1.53;;;;;;;14.29;77.95;95664.11;128087;1101;22753;-87
2021/05/16 06:09:55;;;;;;;1.85;1.20;;;;;;;14.68;77.36;95673.57;128123;1101;24353;-86
2021/05/16 06:12:26;;;;;;;1.30;1.10;;;;;;;15.12;76.27;95669.39;128079;1101;22774;-84
2021/05/16 06:14:58;;;;;;;2.38;1.30;;;;;;;17.06;76.79;95669.59;128047;1101;22853;-89
2021/05/16 06:17:29;;;;;;;1.43;1.20;;;;;;;18.14;70.29;95668.41;128076;1101;22746;-82
2021/05/16 06:19:59;;;;;;;1.20;0.78;;;;;;;17.65;68.27;95672.25;128095;1101;22778;-85
2021/05/16 06:22:29;;;;;;;3.03;1.23;;;;;;;17.17;68.96;95674.12;128103;1101;22822;-84
2021/05/16 06:24:59;;;;;;;1.58;0.93;;;;;;;16.90;68.51;95675.69;128069;1096;27080;-85
2021/05/16 06:27:29;;;;;;;2.10;1.13;;;;;;;16.44;67.46;95673.56;128176;1101;22830;-85
2021/05/16 06:29:59;;;;;;;1.78;1.10;;;;;;;15.97;67.42;95677.53;128107;1101;22746;-86
2021/05/16 06:32:29;;;;;;;1.33;1.23;;;;;;;15.66;68.71;95677.31;128059;1101;24394;-83
2021/05/16 06:34:59;;;;;;;1.35;1.10;;;;;;;15.28;69.01;95677.55;128076;1101;22754;-85
2021/05/16 06:37:29;;;;;;;1.40;1.30;;;;;;;14.92;68.22;95680.88;128086;1101;22776;-84
2021/05/16 06:40:11;;;;;;;2.30;1.20;;;;;;;14.53;69.47;95682.95;128120;1101;22732;-84
2021/05/16 06:42:42;;;;;;;1.60;1.00;;;;;;;14.32;69.90;95682.89;128104;1101;22844;-83
2021/05/16 06:45:14;;;;;;;2.18;1.08;;;;;;;14.21;70.42;95681.70;128063;1101;22794;-83
2021/05/16 06:47:44;;;;;;;1.85;1.10;;;;;;;14.14;71.14;95678.78;128064;1101;22782;-84
2021/05/16 06:50:15;;;;;;;2.55;1.15;;;;;;;14.21;71.77;95679.81;128054;1101;24340;-84
2021/05/16 06:52:45;;;;;;;2.05;1.20;;;;;;;14.16;70.48;95682.69;128054;1101;22770;-86
2021/05/16 06:55:16;;;;;;;1.35;0.90;;;;;;;14.06;69.90;95683.05;128040;1101;22753;-85
2021/05/16 06:57:46;;;;;;;1.47;0.93;;;;;;;13.94;69.40;95682.98;128105;1101;22769;-83
2021/05/16 07:00:17;;;;;;;1.88;0.60;;;;;;;13.75;68.99;95680.70;128065;1101;22781;-86
2021/05/16 07:02:47;;;;;;;1.18;0.90;;;;;;;13.66;70.01;95679.98;128107;1096;22778;-85
2021/05/16 07:05:17;;;;;;;3.67;1.37;;;;;;;13.68;70.01;95677.00;128070;1101;24363;-85
2021/05/16 07:07:47;;;;;;;1.68;0.70;;;;;;;13.77;70.00;95670.52;128162;1101;22752;-86
2021/05/16 07:10:17;;;;;;;1.08;0.83;;;;;;;13.89;70.21;95670.61;128142;1101;24568;-86
2021/05/16 07:12:47;;;;;;;1.48;0.88;;;;;;;14.06;70.28;95683.05;128055;1101;22826;-83
2021/05/16 07:15:17;;;;;;;2.48;1.43;;;;;;;14.22;70.07;95680.63;128067;1101;22945;-84
2021/05/16 07:17:48;;;;;;;;;;;;;;;14.38;70.54;95675.50;128086;1101;22714;-85
2021/05/16 07:20:18;;;;;;;1.85;0.95;;;;;;;14.57;70.68;95669.73;128040;1101;21456;-86
2021/05/16 07:22:49;;;;;;;1.33;0.93;;;;;;;14.55;69.50;95667.39;128038;1101;22843;-86
2021/05/16 07:25:19;;;;;;;2.38;1.15;;;;;;;14.57;69.44;95669.73;128070;1101;22760;-84
2021/05/16 07:27:50;;;;;;;2.08;1.20;;;;;;;14.67;70.49;95666.67;128120;1101;22757;-86
2021/05/16 07:30:22;;;;;;;1.68;1.10;;;;;;;14.75;70.90;95669.25;128138;1101;23185;-86
2021/05/16 07:32:52;;;;;;;1.43;1.00;;;;;;;14.83;70.52;95676.41;128084;1101;22763;-83
2021/05/16 07:35:22;;;;;;;1.30;1.08;;;;;;;14.89;70.46;95666.30;128043;1101;22738;-85
2021/05/16 07:37:52;;;;;;;1.68;1.13;;;;;;;14.91;70.13;95668.64;128064;1101;22757;-84
2021/05/16 07:40:22;;;;;;;1.98;1.10;;;;;;;14.93;70.37;95666.45;128057;1101;22753;-85
2021/05/16 07:42:53;;;;;;;1.48;1.35;;;;;;;14.95;70.22;95670.34;128073;1101;22753;-84
2021/05/16 07:45:22;;;;;;;;;;;;;;;15.01;70.02;95668.23;128121;1101;22914;-83
2021/05/16 07:47:52;;;;;;;1.65;1.10;;;;;;;14.95;70.54;95673.02;128072;1101;24182;-83
2021/05/16 07:50:22;;;;;;;2.00;1.30;;;;;;;14.89;70.17;95673.53;128043;1101;22760;-84
2021/05/16 07:52:52;;;;;;;2.55;1.13;;;;;;;14.90;70.70;95672.42;128046;1101;22763;-85
2021/05/16 07:55:22;;;;;;;3.28;1.78;;;;;;;14.88;70.75;95667.41;128079;1101;22780;-84
2021/05/16 07:57:52;;;;;;;2.15;1.50;;;;;;;14.92;71.44;95668.34;128128;1101;22914;-83
2021/05/16 08:00:23;;;;;;;1.90;1.40;;;;;;;14.97;71.54;95670.02;128080;1095;22861;-84
2021/05/16 08:02:53;;;;;;;2.25;1.38;;;;;;;14.97;70.99;95676.13;128067;1101;22754;-83
2021/05/16 08:05:23;;;;;;;1.80;1.40;;;;;;;14.94;70.79;95679.46;128054;1101;22749;-85
2021/05/16 08:07:54;;;;;;;3.88;1.60;;;;;;;14.94;70.37;95679.46;128061;1101;22917;-84
2021/05/16 08:10:25;;;;;;;2.03;1.48;;;;;;;14.99;70.58;95687.25;128080;1101;22929;-83
2021/05/16 08:12:55;;;;;;;1.70;1.33;;;;;;;15.07;70.37;95688.30;128080;1101;22750;-85
2021/05/16 08:15:26;;;;;;;3.25;1.33;;;;;;;15.20;69.64;95686.41;128053;1101;22753;-86
2021/05/16 08:17:57;;;;;;;2.85;1.35;;;;;;;15.33;69.92;95688.01;128099;1101;22760;-86
2021/05/16 08:20:28;;;;;;;1.88;1.45;;;;;;;15.36;69.00;95685.48;128074;1101;22809;-85
2021/05/16 08:22:58;;;;;;;2.53;1.70;;;;;;;15.42;68.93;95691.38;128082;1101;22852;-83
2021/05/16 08:25:28;;;;;;;2.57;1.63;;;;;;;15.51;70.01;95691.29;128108;1096;26257;-83
2021/05/16 08:27:58;;;;;;;3.65;1.73;;;;;;;15.54;69.04;95695.96;128080;1101;22775;-87
2021/05/16 08:30:29;;;;;;;2.68;1.70;;;;;;;15.46;69.51;95689.59;128079;1101;22829;-85
2021/05/16 08:32:59;;;;;;;2.88;2.23;;;;;;;15.41;69.94;95695.16;128094;1101;22965;-86
2021/05/16 08:35:30;;;;;;;3.23;1.90;;;;;;;15.36;69.91;95696.16;128075;1101;22777;-84
2021/05/16 08:38:00;;;;;;;3.45;1.68;;;;;;;15.26;69.81;95696.57;128110;1101;22783;-86
2021/05/16 08:40:30;;;;;;;2.93;1.65;;;;;;;15.13;69.37;95697.64;128010;1101;22926;-84
2021/05/16 08:43:02;;;;;;;3.10;1.83;;;;;;;14.93;69.72;95698.47;128073;1096;22735;-86
2021/05/16 08:45:33;;;;;;;3.63;1.50;;;;;;;14.73;70.03;95694.70;128118;1101;22773;-83
2021/05/16 08:48:03;;;;;;;2.53;1.30;;;;;;;14.60;71.13;95699.20;128040;1094;22799;-84
2021/05/16 08:50:33;;;;;;;2.50;1.73;;;;;;;14.44;71.93;95701.66;128049;1101;22782;-84
2021/05/16 08:53:03;;;;;;;2.00;1.65;;;;;;;14.35;72.77;95703.57;128025;1101;22771;-84
2021/05/16 08:55:36;;;;;;;2.38;1.60;;;;;;;14.37;72.94;95708.61;128077;1101;22861;-84
2021/05/16 08:58:07;;;;;;;2.70;1.50;;;;;;;14.34;73.56;95719.89;128074;1101;22843;-85
2021/05/16 09:00:45;;;;;;;2.40;1.70;;;;;;;14.22;74.01;95724.06;128051;1101;22842;-83
2021/05/16 09:03:16;;;;;;;1.98;1.43;;;;;;;14.08;74.29;95715.52;128076;1095;26207;-84
2021/05/16 09:05:49;;;;;;;1.78;1.60;;;;;;;13.94;75.10;95720.30;128075;1096;26777;-85
2021/05/16 09:08:21;;;;;;;1.83;1.68;;;;;;;13.89;76.08;95725.78;128053;1101;22767;-89
2021/05/16 09:10:55;;;;;;;0.85;0.60;;;;;;;13.70;73.16;95718.19;128071;1101;22767;-86
2021/05/16 09:13:28;;;;;;;1.35;0.90;;;;;;;13.43;73.19;95721.25;128124;1101;24349;-84
2021/05/16 09:16:11;;;;;;;2.18;0.78;;;;;;;13.34;73.56;95727.38;128060;1101;22821;-87
2021/05/16 09:18:45;;;;;;;1.40;1.00;;;;;;;13.41;75.17;95732.23;128056;1101;22750;-83
2021/05/16 09:21:28;;;;;;;1.53;1.15;;;;;;;13.60;75.94;95721.98;128074;1094;26239;-84
2021/05/16 09:24:12;;;;;;;2.35;1.25;;;;;;;13.87;76.12;95712.00;128169;1101;22773;-85
2021/05/16 09:26:58;;;;;;;1.05;0.68;;;;;;;14.21;75.15;95711.03;128073;1101;22775;-84
2021/05/16 09:29:33;;;;;;;1.07;0.47;;;;;;;14.40;73.22;95713.28;128097;1096;26542;-84
2021/05/16 09:32:04;;;;;;;0.35;0.28;;;;;;;14.40;71.70;95707.95;128137;1101;22932;-84
2021/05/16 09:34:34;;;;;;;2.28;0.70;;;;;;;14.52;72.06;95718.72;128177;1096;26210;-84
2021/05/16 09:37:06;;;;;;;0.35;0.25;;;;;;;14.53;69.85;95707.73;128132;1101;22763;-84
2021/05/16 09:39:38;;;;;;;0.70;0.50;;;;;;;14.62;70.34;95709.53;128052;1101;22916;-84
2021/05/16 09:42:12;;;;;;;0.30;0.30;;;;;;;14.59;67.30;95705.64;128059;1101;22753;-87
2021/05/16 09:44:45;;;;;;;0.68;0.38;;;;;;;14.53;67.37;95709.62;128062;1101;22757;-84
2021/05/16 09:47:19;;;;;;;0.33;0.30;;;;;;;14.54;68.43;95708.51;128040;1093;27494;-85
2021/05/16 09:49:51;;;;;;;0.85;0.50;;;;;;;14.40;67.61;95710.62;128115;1094;25864;-84
2021/05/16 09:52:26;;;;;;;0.43;0.27;;;;;;;14.21;66.68;95706.48;128051;1101;22888;-86
2021/05/16 09:54:59;;;;;;;1.05;0.43;;;;;;;14.08;68.19;95712.85;128055;1096;23224;-84
2021/05/16 09:57:31;;;;;;;0.50;0.33;;;;;;;14.13;68.36;95712.66;128091;1101;22760;-84
2021/05/16 10:00:02;;;;;;;0.30;0.30;;;;;;;14.14;67.28;95722.21;128108;1101;22764;-86
2021/05/16 10:02:32;;;;;;;0.35;0.35;;;;;;;14.17;66.52;95721.56;128057;1101;24319;-86
2021/05/16 10:05:03;;;;;;;0.50;0.33;;;;;;;14.17;66.23;95721.56;128062;1101;22730;-85
2021/05/16 10:07:34;;;;;;;0.63;0.30;;;;;;;14.11;66.13;95722.08;128076;1101;22812;-85
2021/05/16 10:10:07;;;;;;;0.65;0.35;;;;;;;14.17;66.56;95710.90;128055;1096;26427;-84
2021/05/16 10:12:39;;;;;;;0.43;0.28;;;;;;;14.13;64.78;95717.98;128071;1096;26241;-84
2021/05/16 10:15:15;;;;;;;0.13;0.13;;;;;;;14.20;65.54;95715.58;128094;1101;24346;-86
2021/05/16 10:17:55;;;;;;;1.53;0.40;;;;;;;14.21;66.37;95722.47;128047;1101;22750;-85
2021/05/16 10:20:29;;;;;;;0.20;0.13;;;;;;;14.19;65.97;95729.23;128133;1101;22830;-85
2021/05/16 10:23:02;;;;;;;0.30;0.30;;;;;;;14.05;65.01;95721.47;128094;1101;22750;-86
2021/05/16 10:25:42;;;;;;;1.53;0.20;;;;;;;14.04;65.41;95722.57;128070;1101;22844;-84
2021/05/16 10:28:15;;;;;;;0.70;0.20;;;;;;;13.97;64.01;95711.65;128090;1101;24352;-84
2021/05/16 10:31:03;;;;;;;1.25;0.30;;;;;;;13.84;65.58;95724.09;128066;1101;22754;-85
2021/05/16 10:33:33;;;;;;;0.78;0.43;;;;;;;13.78;65.63;95728.02;128057;1101;22754;-84
2021/05/16 10:36:04;;;;;;;0.85;0.50;;;;;;;13.76;66.15;95727.56;128063;1101;22834;-84
2021/05/16 10:38:35;;;;;;;0.18;0.18;;;;;;;13.74;66.96;95726.31;128149;1101;22754;-85
2021/05/16 10:41:24;;;;;;;0.80;0.30;;;;;;;13.70;67.19;95728.06;128085;1094;22753;-84
2021/05/16 10:44:29;;;;;;;0.53;0.30;;;;;;;13.65;68.11;95734.33;128086;1101;22780;-84
2021/05/16 10:47:00;;;;;;;0.85;0.45;;;;;;;13.64;68.78;95728.22;128084;1101;22836;-83
2021/05/16 10:49:33;;;;;;;0.40;0.30;;;;;;;13.61;69.07;95731.53;128119;1101;22924;-84
2021/05/16 10:52:28;;;;;;;0.88;0.40;;;;;;;13.63;69.73;95733.87;128056;1101;22782;-86
2021/05/16 10:54:58;;;;;;;0.70;0.50;;;;;;;13.51;69.38;95728.42;128093;1095;25871;-85
2021/05/16 10:57:37;;;;;;;0.70;0.50;;;;;;;13.39;70.27;95731.77;128068;1101;22751;-84
2021/05/16 11:00:27;;;;;;;1.35;0.93;;;;;;;13.33;71.07;95733.02;128029;1101;22922;-83
2021/05/16 11:03:07;;;;;;;1.93;1.13;;;;;;;13.33;71.30;95725.03;128085;1101;24528;-83
2021/05/16 11:05:57;;;;;;;1.65;0.68;;;;;;;13.31;71.61;95727.23;128094;1101;24340;-84
2021/05/16 11:09:12;;;;;;;1.08;0.80;;;;;;;13.27;72.37;95727.09;128052;1101;22960;-83
2021/05/16 11:12:06;;;;;;;1.13;0.80;;;;;;;13.33;72.87;95730.35;128063;1101;22753;-84
2021/05/16 11:14:40;;;;;;;2.65;0.80;;;;;;;13.40;72.79;95722.67;128093;1101;22761;-84
2021/05/16 11:17:16;;;;;;;2.23;1.00;;;;;;;13.39;72.95;95726.44;128054;1101;22750;-84
2021/05/16 11:19:48;;;;;;;1.38;0.80;;;;;;;13.40;73.00;95725.34;128079;1101;22757;-83
2021/05/16 11:22:19;;;;;;;1.73;0.70;;;;;;;13.39;73.31;95713.13;128041;1101;22768;-84
2021/05/16 11:24:52;;;;;;;1.08;0.68;;;;;;;13.37;73.25;95715.30;128070;1101;22863;-83
2021/05/16 11:27:28;;;;;;;1.35;0.78;;;;;;;13.32;73.35;95708.27;128125;1101;22780;-84
2021/05/16 11:30:03;;;;;;;1.85;0.65;;;;;;;13.29;73.47;95708.14;128113;1095;22738;-84
2021/05/16 11:32:34;;;;;;;0.70;0.60;;;;;;;13.31;73.90;95711.26;128032;1101;22800;-86
2021/05/16 11:35:17;;;;;;;1.30;0.68;;;;;;;13.28;73.59;95717.22;128034;1101;22848;-88
2021/05/16 11:37:51;;;;;;;1.60;0.75;;;;;;;13.24;74.00;95706.44;128054;1094;25902;-84
2021/05/16 11:40:32;;;;;;;1.60;0.78;;;;;;;13.21;74.34;95700.94;128051;1101;22754;-86
2021/05/16 11:43:06;;;;;;;2.85;1.00;;;;;;;13.18;74.51;95698.89;128063;1101;22753;-84
2021/05/16 11:45:39;;;;;;;1.50;0.83;;;;;;;13.23;74.61;95701.40;128101;1101;22769;-83
2021/05/16 11:48:30;;;;;;;2.88;0.78;;;;;;;13.21;74.80;95706.27;128117;1101;22781;-83